sensor_id;sensor_type;location;lat;lon;timestamp;pressure;altitude;pressure_sealevel;temperature;humidity
54924;BME280;40825;52.270;20.984;2022-11-15T00:01:09;101004.42;;;5.28;89.43
54924;BME280;40825;52.270;20.984;2022-11-15T00:03:34;100999.91;;;5.30;89.58
54924;BME280;40825;52.270;20.984;2022-11-15T00:06:04;100998.85;;;5.30;89.61
54924;BME280;40825;52.270;20.984;2022-11-15T00:08:31;100994.45;;;5.30;89.69
54924;BME280;40825;52.270;20.984;2022-11-15T00:11:01;100988.15;;;5.29;89.80
54924;BME280;40825;52.270;20.984;2022-11-15T00:13:27;100990.92;;;5.27;89.70
54924;BME280;40825;52.270;20.984;2022-11-15T00:15:52;100983.71;;;5.25;89.72
54924;BME280;40825;52.270;20.984;2022-11-15T00:18:18;100982.70;;;5.27;89.79
54924;BME280;40825;52.270;20.984;2022-11-15T00:20:44;100978.65;;;5.26;89.95
54924;BME280;40825;52.270;20.984;2022-11-15T00:23:09;100971.90;;;5.25;89.94
54924;BME280;40825;52.270;20.984;2022-11-15T00:25:35;100968.90;;;5.25;89.88
54924;BME280;40825;52.270;20.984;2022-11-15T00:28:01;100967.94;;;5.26;90.16
54924;BME280;40825;52.270;20.984;2022-11-15T00:30:27;100964.08;;;5.26;90.01
54924;BME280;40825;52.270;20.984;2022-11-15T00:32:53;100959.61;;;5.26;89.99
54924;BME280;40825;52.270;20.984;2022-11-15T00:35:19;100956.35;;;5.27;89.99
54924;BME280;40825;52.270;20.984;2022-11-15T00:37:45;100951.77;;;5.29;89.99
54924;BME280;40825;52.270;20.984;2022-11-15T00:40:12;100951.30;;;5.32;90.09
54924;BME280;40825;52.270;20.984;2022-11-15T00:42:38;100944.08;;;5.34;90.07
54924;BME280;40825;52.270;20.984;2022-11-15T00:45:04;100938.50;;;5.35;90.09
54924;BME280;40825;52.270;20.984;2022-11-15T00:47:29;100936.20;;;5.35;90.07
54924;BME280;40825;52.270;20.984;2022-11-15T00:49:54;100927.87;;;5.35;90.07
54924;BME280;40825;52.270;20.984;2022-11-15T00:52:20;100928.30;;;5.35;90.12
54924;BME280;40825;52.270;20.984;2022-11-15T00:54:45;100925.63;;;5.33;90.28
54924;BME280;40825;52.270;20.984;2022-11-15T00:57:11;100922.66;;;5.33;90.20
54924;BME280;40825;52.270;20.984;2022-11-15T00:59:36;100921.45;;;5.32;90.41
54924;BME280;40825;52.270;20.984;2022-11-15T01:02:01;100912.95;;;5.33;90.37
54924;BME280;40825;52.270;20.984;2022-11-15T01:04:27;100911.61;;;5.32;90.54
54924;BME280;40825;52.270;20.984;2022-11-15T01:06:53;100904.59;;;5.29;90.54
54924;BME280;40825;52.270;20.984;2022-11-15T01:09:18;100900.20;;;5.27;90.48
54924;BME280;40825;52.270;20.984;2022-11-15T01:11:44;100902.29;;;5.28;90.61
54924;BME280;40825;52.270;20.984;2022-11-15T01:14:09;100898.96;;;5.28;90.53
54924;BME280;40825;52.270;20.984;2022-11-15T01:16:35;100890.64;;;5.28;90.66
54924;BME280;40825;52.270;20.984;2022-11-15T01:19:00;100893.38;;;5.29;90.76
54924;BME280;40825;52.270;20.984;2022-11-15T01:21:26;100891.84;;;5.30;90.73
54924;BME280;40825;52.270;20.984;2022-11-15T01:23:56;100891.03;;;5.29;90.75
54924;BME280;40825;52.270;20.984;2022-11-15T01:26:22;100881.52;;;5.29;90.68
54924;BME280;40825;52.270;20.984;2022-11-15T01:28:48;100875.25;;;5.30;90.68
54924;BME280;40825;52.270;20.984;2022-11-15T01:31:18;100869.48;;;5.31;90.78
54924;BME280;40825;52.270;20.984;2022-11-15T01:33:45;100867.61;;;5.32;90.79
54924;BME280;40825;52.270;20.984;2022-11-15T01:36:19;100868.45;;;5.33;90.76
54924;BME280;40825;52.270;20.984;2022-11-15T01:38:47;100875.16;;;5.33;90.81
54924;BME280;40825;52.270;20.984;2022-11-15T01:41:15;100864.41;;;5.33;91.11
54924;BME280;40825;52.270;20.984;2022-11-15T01:43:41;100861.48;;;5.30;91.20
54924;BME280;40825;52.270;20.984;2022-11-15T01:46:38;100864.04;;;5.27;91.14
54924;BME280;40825;52.270;20.984;2022-11-15T01:49:14;100856.77;;;5.26;91.16
54924;BME280;40825;52.270;20.984;2022-11-15T01:51:39;100859.27;;;5.25;91.21
54924;BME280;40825;52.270;20.984;2022-11-15T01:54:09;100856.52;;;5.27;91.22
54924;BME280;40825;52.270;20.984;2022-11-15T01:56:46;100855.61;;;5.27;91.31
54924;BME280;40825;52.270;20.984;2022-11-15T01:59:13;100846.86;;;5.26;91.56
54924;BME280;40825;52.270;20.984;2022-11-15T02:01:40;100846.27;;;5.25;91.48
54924;BME280;40825;52.270;20.984;2022-11-15T02:04:18;100842.11;;;5.26;91.46
54924;BME280;40825;52.270;20.984;2022-11-15T02:06:46;100836.14;;;5.27;91.44
54924;BME280;40825;52.270;20.984;2022-11-15T02:09:13;100833.21;;;5.31;91.42
54924;BME280;40825;52.270;20.984;2022-11-15T02:11:39;100839.59;;;5.32;91.64
54924;BME280;40825;52.270;20.984;2022-11-15T02:14:06;100835.73;;;5.32;91.60
54924;BME280;40825;52.270;20.984;2022-11-15T02:27:58;100826.75;;;5.28;91.66
54924;BME280;40825;52.270;20.984;2022-11-15T02:31:05;100824.21;;;5.27;91.70
54924;BME280;40825;52.270;20.984;2022-11-15T02:36:49;100812.23;;;5.26;92.11
54924;BME280;40825;52.270;20.984;2022-11-15T02:42:33;100804.50;;;5.22;91.95
54924;BME280;40825;52.270;20.984;2022-11-15T02:45:23;100812.91;;;5.23;91.90
54924;BME280;40825;52.270;20.984;2022-11-15T02:47:52;100810.27;;;5.25;91.91
54924;BME280;40825;52.270;20.984;2022-11-15T02:50:24;100807.95;;;5.27;92.13
54924;BME280;40825;52.270;20.984;2022-11-15T02:52:51;100801.81;;;5.28;91.98
54924;BME280;40825;52.270;20.984;2022-11-15T02:55:37;100793.78;;;5.29;92.19
54924;BME280;40825;52.270;20.984;2022-11-15T02:58:24;100792.27;;;5.28;91.99
54924;BME280;40825;52.270;20.984;2022-11-15T03:01:00;100794.98;;;5.26;92.33
54924;BME280;40825;52.270;20.984;2022-11-15T03:03:51;100789.41;;;5.21;92.34
54924;BME280;40825;52.270;20.984;2022-11-15T03:06:35;100783.48;;;5.20;92.14
54924;BME280;40825;52.270;20.984;2022-11-15T03:12:24;100774.49;;;5.16;92.33
54924;BME280;40825;52.270;20.984;2022-11-15T03:15:06;100774.65;;;5.15;92.39
54924;BME280;40825;52.270;20.984;2022-11-15T03:17:52;100768.47;;;5.13;92.30
54924;BME280;40825;52.270;20.984;2022-11-15T03:20:20;100769.13;;;5.12;92.54
54924;BME280;40825;52.270;20.984;2022-11-15T03:22:47;100765.58;;;5.10;92.37
54924;BME280;40825;52.270;20.984;2022-11-15T03:25:19;100759.63;;;5.10;92.45
54924;BME280;40825;52.270;20.984;2022-11-15T03:27:52;100756.29;;;5.12;92.60
54924;BME280;40825;52.270;20.984;2022-11-15T03:30:19;100753.59;;;5.14;92.71
54924;BME280;40825;52.270;20.984;2022-11-15T03:32:49;100753.76;;;5.14;92.86
54924;BME280;40825;52.270;20.984;2022-11-15T03:35:21;100747.41;;;5.12;92.89
54924;BME280;40825;52.270;20.984;2022-11-15T03:38:08;100742.60;;;5.09;93.09
54924;BME280;40825;52.270;20.984;2022-11-15T03:40:39;100738.14;;;5.05;92.99
54924;BME280;40825;52.270;20.984;2022-11-15T03:46:11;100735.44;;;5.04;92.80
54924;BME280;40825;52.270;20.984;2022-11-15T03:48:46;100732.05;;;5.03;92.93
54924;BME280;40825;52.270;20.984;2022-11-15T03:51:15;100721.96;;;5.01;93.04
54924;BME280;40825;52.270;20.984;2022-11-15T03:53:41;100720.89;;;5.02;93.12
54924;BME280;40825;52.270;20.984;2022-11-15T03:56:07;100721.09;;;5.01;93.31
54924;BME280;40825;52.270;20.984;2022-11-15T03:58:32;100718.00;;;5.00;93.17
54924;BME280;40825;52.270;20.984;2022-11-15T04:00:57;100717.36;;;5.00;93.04
54924;BME280;40825;52.270;20.984;2022-11-15T04:03:25;100714.90;;;4.99;93.22
54924;BME280;40825;52.270;20.984;2022-11-15T04:05:50;100713.31;;;5.01;93.16
54924;BME280;40825;52.270;20.984;2022-11-15T04:08:16;100710.30;;;5.03;93.13
54924;BME280;40825;52.270;20.984;2022-11-15T04:10:41;100702.17;;;5.05;93.13
54924;BME280;40825;52.270;20.984;2022-11-15T04:13:06;100702.61;;;5.08;93.05
54924;BME280;40825;52.270;20.984;2022-11-15T04:15:32;100703.99;;;5.11;93.18
54924;BME280;40825;52.270;20.984;2022-11-15T04:17:57;100702.10;;;5.12;93.14
54924;BME280;40825;52.270;20.984;2022-11-15T04:20:26;100699.52;;;5.13;93.20
54924;BME280;40825;52.270;20.984;2022-11-15T04:23:24;100697.10;;;5.12;93.15
54924;BME280;40825;52.270;20.984;2022-11-15T04:26:14;100692.98;;;5.13;93.19
54924;BME280;40825;52.270;20.984;2022-11-15T04:28:41;100694.33;;;5.14;93.44
54924;BME280;40825;52.270;20.984;2022-11-15T04:31:27;100696.28;;;5.14;93.42
54924;BME280;40825;52.270;20.984;2022-11-15T04:33:53;100690.04;;;5.14;93.36
54924;BME280;40825;52.270;20.984;2022-11-15T04:36:19;100689.14;;;5.14;93.38
54924;BME280;40825;52.270;20.984;2022-11-15T04:39:03;100690.16;;;5.13;93.42
54924;BME280;40825;52.270;20.984;2022-11-15T04:41:28;100688.41;;;5.11;93.31
54924;BME280;40825;52.270;20.984;2022-11-15T04:43:54;100686.41;;;5.10;93.57
54924;BME280;40825;52.270;20.984;2022-11-15T04:46:20;100688.49;;;5.06;93.59
54924;BME280;40825;52.270;20.984;2022-11-15T04:48:45;100686.36;;;5.05;93.49
54924;BME280;40825;52.270;20.984;2022-11-15T04:51:10;100685.64;;;5.03;93.52
54924;BME280;40825;52.270;20.984;2022-11-15T04:53:36;100679.92;;;5.02;93.64
54924;BME280;40825;52.270;20.984;2022-11-15T04:56:01;100684.80;;;5.02;93.56
54924;BME280;40825;52.270;20.984;2022-11-15T04:58:27;100688.17;;;5.04;93.55
54924;BME280;40825;52.270;20.984;2022-11-15T05:00:52;100684.20;;;5.07;93.57
54924;BME280;40825;52.270;20.984;2022-11-15T05:03:17;100685.55;;;5.09;93.59
54924;BME280;40825;52.270;20.984;2022-11-15T05:06:02;100682.73;;;5.11;93.73
54924;BME280;40825;52.270;20.984;2022-11-15T05:08:27;100678.31;;;5.09;93.73
54924;BME280;40825;52.270;20.984;2022-11-15T05:10:53;100673.88;;;5.06;93.79
54924;BME280;40825;52.270;20.984;2022-11-15T05:13:18;100673.23;;;5.02;93.54
54924;BME280;40825;52.270;20.984;2022-11-15T05:15:43;100669.26;;;4.95;94.06
54924;BME280;40825;52.270;20.984;2022-11-15T05:18:09;100670.39;;;4.91;93.95
54924;BME280;40825;52.270;20.984;2022-11-15T05:20:34;100671.37;;;4.86;94.28
54924;BME280;40825;52.270;20.984;2022-11-15T05:23:00;100670.77;;;4.81;94.48
54924;BME280;40825;52.270;20.984;2022-11-15T05:25:25;100663.96;;;4.78;94.17
54924;BME280;40825;52.270;20.984;2022-11-15T05:27:51;100660.14;;;4.78;94.08
54924;BME280;40825;52.270;20.984;2022-11-15T05:30:16;100663.25;;;4.79;94.18
54924;BME280;40825;52.270;20.984;2022-11-15T05:32:43;100667.08;;;4.79;94.08
54924;BME280;40825;52.270;20.984;2022-11-15T05:35:13;100666.27;;;4.80;94.25
54924;BME280;40825;52.270;20.984;2022-11-15T05:37:41;100665.11;;;4.81;94.31
54924;BME280;40825;52.270;20.984;2022-11-15T05:40:07;100667.80;;;4.81;94.45
54924;BME280;40825;52.270;20.984;2022-11-15T05:42:33;100667.86;;;4.80;94.31
54924;BME280;40825;52.270;20.984;2022-11-15T05:44:59;100663.17;;;4.81;94.38
54924;BME280;40825;52.270;20.984;2022-11-15T05:47:29;100657.52;;;4.79;94.64
54924;BME280;40825;52.270;20.984;2022-11-15T05:49:56;100659.53;;;4.79;94.52
54924;BME280;40825;52.270;20.984;2022-11-15T05:52:24;100655.66;;;4.81;94.45
54924;BME280;40825;52.270;20.984;2022-11-15T05:54:51;100658.56;;;4.83;94.44
54924;BME280;40825;52.270;20.984;2022-11-15T05:57:17;100656.67;;;4.86;94.43
54924;BME280;40825;52.270;20.984;2022-11-15T05:59:43;100650.63;;;4.87;94.38
54924;BME280;40825;52.270;20.984;2022-11-15T06:02:10;100649.06;;;4.87;94.43
54924;BME280;40825;52.270;20.984;2022-11-15T06:04:36;100647.24;;;4.86;94.35
54924;BME280;40825;52.270;20.984;2022-11-15T06:07:01;100647.44;;;4.87;94.48
54924;BME280;40825;52.270;20.984;2022-11-15T06:09:27;100652.03;;;4.87;94.47
54924;BME280;40825;52.270;20.984;2022-11-15T06:11:53;100653.34;;;4.86;94.69
54924;BME280;40825;52.270;20.984;2022-11-15T06:14:18;100651.05;;;4.85;94.59
54924;BME280;40825;52.270;20.984;2022-11-15T06:16:43;100658.15;;;4.86;94.58
54924;BME280;40825;52.270;20.984;2022-11-15T06:19:09;100657.06;;;4.82;94.78
54924;BME280;40825;52.270;20.984;2022-11-15T06:21:35;100661.34;;;4.78;94.74
54924;BME280;40825;52.270;20.984;2022-11-15T06:24:00;100663.66;;;4.76;94.67
54924;BME280;40825;52.270;20.984;2022-11-15T06:26:25;100664.89;;;4.76;94.83
54924;BME280;40825;52.270;20.984;2022-11-15T06:28:51;100662.27;;;4.76;94.93
54924;BME280;40825;52.270;20.984;2022-11-15T06:31:16;100659.59;;;4.74;94.85
54924;BME280;40825;52.270;20.984;2022-11-15T06:33:41;100658.95;;;4.74;94.80
54924;BME280;40825;52.270;20.984;2022-11-15T06:36:10;100652.31;;;4.73;94.72
54924;BME280;40825;52.270;20.984;2022-11-15T06:38:35;100654.47;;;4.73;94.69
54924;BME280;40825;52.270;20.984;2022-11-15T06:41:02;100657.86;;;4.74;94.69
54924;BME280;40825;52.270;20.984;2022-11-15T06:43:28;100657.92;;;4.77;94.69
54924;BME280;40825;52.270;20.984;2022-11-15T06:45:54;100663.91;;;4.79;94.72
54924;BME280;40825;52.270;20.984;2022-11-15T06:48:19;100662.96;;;4.78;94.87
54924;BME280;40825;52.270;20.984;2022-11-15T06:50:51;100669.29;;;4.76;94.75
54924;BME280;40825;52.270;20.984;2022-11-15T06:53:17;100671.42;;;4.73;94.71
54924;BME280;40825;52.270;20.984;2022-11-15T06:55:42;100671.30;;;4.70;94.69
54924;BME280;40825;52.270;20.984;2022-11-15T06:58:08;100678.26;;;4.67;94.98
54924;BME280;40825;52.270;20.984;2022-11-15T07:00:34;100678.49;;;4.64;94.80
54924;BME280;40825;52.270;20.984;2022-11-15T07:03:00;100676.23;;;4.64;94.76
54924;BME280;40825;52.270;20.984;2022-11-15T07:05:27;100675.30;;;4.65;95.02
54924;BME280;40825;52.270;20.984;2022-11-15T07:07:54;100677.08;;;4.64;94.95
54924;BME280;40825;52.270;20.984;2022-11-15T07:10:21;100676.05;;;4.62;95.16
54924;BME280;40825;52.270;20.984;2022-11-15T07:12:50;100677.06;;;4.59;95.16
54924;BME280;40825;52.270;20.984;2022-11-15T07:15:17;100674.16;;;4.56;94.98
54924;BME280;40825;52.270;20.984;2022-11-15T07:17:42;100681.01;;;4.55;95.30
54924;BME280;40825;52.270;20.984;2022-11-15T07:20:08;100682.71;;;4.53;95.14
54924;BME280;40825;52.270;20.984;2022-11-15T07:22:34;100678.77;;;4.52;95.26
54924;BME280;40825;52.270;20.984;2022-11-15T07:24:59;100673.70;;;4.49;95.63
54924;BME280;40825;52.270;20.984;2022-11-15T07:27:25;100676.65;;;4.50;95.42
54924;BME280;40825;52.270;20.984;2022-11-15T07:29:50;100677.52;;;4.54;95.23
54924;BME280;40825;52.270;20.984;2022-11-15T07:32:16;100676.55;;;4.57;95.15
54924;BME280;40825;52.270;20.984;2022-11-15T07:34:41;100675.59;;;4.60;95.26
54924;BME280;40825;52.270;20.984;2022-11-15T07:37:07;100672.02;;;4.64;95.19
54924;BME280;40825;52.270;20.984;2022-11-15T07:39:33;100672.11;;;4.64;95.40
54924;BME280;40825;52.270;20.984;2022-11-15T07:41:59;100670.20;;;4.61;95.39
54924;BME280;40825;52.270;20.984;2022-11-15T07:44:43;100666.37;;;4.54;95.50
54924;BME280;40825;52.270;20.984;2022-11-15T07:47:08;100666.16;;;4.51;95.36
54924;BME280;40825;52.270;20.984;2022-11-15T07:49:34;100659.14;;;4.51;95.55
54924;BME280;40825;52.270;20.984;2022-11-15T07:51:59;100655.64;;;4.51;95.52
54924;BME280;40825;52.270;20.984;2022-11-15T07:54:25;100657.86;;;4.53;95.52
54924;BME280;40825;52.270;20.984;2022-11-15T07:56:50;100655.67;;;4.58;95.43
54924;BME280;40825;52.270;20.984;2022-11-15T07:59:16;100656.71;;;4.62;95.26
54924;BME280;40825;52.270;20.984;2022-11-15T08:01:41;100651.85;;;4.66;95.20
54924;BME280;40825;52.270;20.984;2022-11-15T08:04:06;100649.80;;;4.74;95.16
54924;BME280;40825;52.270;20.984;2022-11-15T08:06:32;100643.92;;;4.76;94.92
54924;BME280;40825;52.270;20.984;2022-11-15T08:08:57;100639.18;;;4.78;94.92
54924;BME280;40825;52.270;20.984;2022-11-15T08:11:23;100635.05;;;4.82;94.98
54924;BME280;40825;52.270;20.984;2022-11-15T08:13:48;100637.30;;;4.86;94.88
54924;BME280;40825;52.270;20.984;2022-11-15T08:16:13;100632.23;;;4.90;94.75
54924;BME280;40825;52.270;20.984;2022-11-15T08:18:39;100632.85;;;4.90;94.67
54924;BME280;40825;52.270;20.984;2022-11-15T08:21:05;100628.04;;;4.92;94.79
54924;BME280;40825;52.270;20.984;2022-11-15T08:23:30;100624.52;;;4.96;94.81
54924;BME280;40825;52.270;20.984;2022-11-15T08:26:03;100615.86;;;5.02;94.80
54924;BME280;40825;52.270;20.984;2022-11-15T08:28:31;100615.05;;;5.09;94.84
54924;BME280;40825;52.270;20.984;2022-11-15T08:30:56;100620.91;;;5.16;94.82
54924;BME280;40825;52.270;20.984;2022-11-15T08:33:22;100614.61;;;5.19;94.58
54924;BME280;40825;52.270;20.984;2022-11-15T08:35:48;100621.04;;;5.21;94.69
54924;BME280;40825;52.270;20.984;2022-11-15T08:38:14;100617.30;;;5.26;94.64
54924;BME280;40825;52.270;20.984;2022-11-15T08:40:39;100615.30;;;5.30;94.63
54924;BME280;40825;52.270;20.984;2022-11-15T08:43:05;100611.79;;;5.33;94.30
54924;BME280;40825;52.270;20.984;2022-11-15T08:45:33;100612.23;;;5.36;94.43
54924;BME280;40825;52.270;20.984;2022-11-15T08:48:01;100613.05;;;5.37;94.14
54924;BME280;40825;52.270;20.984;2022-11-15T08:50:27;100614.11;;;5.37;94.31
54924;BME280;40825;52.270;20.984;2022-11-15T08:52:52;100610.56;;;5.41;94.35
54924;BME280;40825;52.270;20.984;2022-11-15T08:55:18;100611.03;;;5.45;94.19
54924;BME280;40825;52.270;20.984;2022-11-15T08:57:43;100611.30;;;5.46;93.96
54924;BME280;40825;52.270;20.984;2022-11-15T09:00:10;100613.33;;;5.47;94.02
54924;BME280;40825;52.270;20.984;2022-11-15T09:02:38;100611.02;;;5.43;93.49
54924;BME280;40825;52.270;20.984;2022-11-15T09:05:04;100602.98;;;5.37;93.64
54924;BME280;40825;52.270;20.984;2022-11-15T09:07:30;100605.35;;;5.32;93.45
54924;BME280;40825;52.270;20.984;2022-11-15T09:09:57;100604.66;;;5.31;93.69
54924;BME280;40825;52.270;20.984;2022-11-15T09:12:23;100600.75;;;5.31;93.58
54924;BME280;40825;52.270;20.984;2022-11-15T09:14:48;100592.66;;;5.34;93.74
54924;BME280;40825;52.270;20.984;2022-11-15T09:17:14;100590.63;;;5.39;93.73
54924;BME280;40825;52.270;20.984;2022-11-15T09:19:39;100588.89;;;5.42;93.67
54924;BME280;40825;52.270;20.984;2022-11-15T09:22:07;100585.73;;;5.47;93.72
54924;BME280;40825;52.270;20.984;2022-11-15T09:24:33;100581.48;;;5.53;93.57
54924;BME280;40825;52.270;20.984;2022-11-15T09:26:59;100582.92;;;5.58;93.58
54924;BME280;40825;52.270;20.984;2022-11-15T09:29:24;100575.34;;;5.61;93.58
54924;BME280;40825;52.270;20.984;2022-11-15T09:31:52;100574.67;;;5.64;93.41
54924;BME280;40825;52.270;20.984;2022-11-15T09:34:17;100573.17;;;5.66;93.34
54924;BME280;40825;52.270;20.984;2022-11-15T09:36:43;100569.55;;;5.68;93.37
54924;BME280;40825;52.270;20.984;2022-11-15T09:39:08;100565.30;;;5.77;93.54
54924;BME280;40825;52.270;20.984;2022-11-15T09:41:58;100561.92;;;5.83;93.07
54924;BME280;40825;52.270;20.984;2022-11-15T09:47:55;100559.21;;;5.83;93.01
54924;BME280;40825;52.270;20.984;2022-11-15T09:50:45;100553.30;;;5.86;93.13
54924;BME280;40825;52.270;20.984;2022-11-15T09:53:14;100549.08;;;5.89;92.86
54924;BME280;40825;52.270;20.984;2022-11-15T09:55:59;100550.58;;;5.94;93.10
54924;BME280;40825;52.270;20.984;2022-11-15T09:58:45;100546.18;;;5.97;92.90
54924;BME280;40825;52.270;20.984;2022-11-15T10:01:25;100542.83;;;6.00;93.00
54924;BME280;40825;52.270;20.984;2022-11-15T10:03:57;100542.44;;;6.04;92.76
54924;BME280;40825;52.270;20.984;2022-11-15T10:06:26;100541.22;;;6.04;92.54
54924;BME280;40825;52.270;20.984;2022-11-15T10:09:03;100539.82;;;6.04;92.53
54924;BME280;40825;52.270;20.984;2022-11-15T10:11:35;100533.50;;;6.02;92.37
54924;BME280;40825;52.270;20.984;2022-11-15T10:14:20;100528.02;;;5.98;92.41
54924;BME280;40825;52.270;20.984;2022-11-15T10:22:45;100530.00;;;5.93;92.58
54924;BME280;40825;52.270;20.984;2022-11-15T10:27:43;100530.41;;;5.96;92.27
54924;BME280;40825;52.270;20.984;2022-11-15T10:30:15;100526.59;;;5.97;92.33
54924;BME280;40825;52.270;20.984;2022-11-15T10:32:43;100521.02;;;5.98;92.41
54924;BME280;40825;52.270;20.984;2022-11-15T10:35:22;100518.86;;;6.02;92.47
54924;BME280;40825;52.270;20.984;2022-11-15T10:37:49;100518.92;;;6.05;92.02
54924;BME280;40825;52.270;20.984;2022-11-15T10:40:18;100515.89;;;6.03;91.99
54924;BME280;40825;52.270;20.984;2022-11-15T10:42:44;100517.13;;;6.07;92.18
54924;BME280;40825;52.270;20.984;2022-11-15T10:45:25;100509.77;;;6.10;92.01
54924;BME280;40825;52.270;20.984;2022-11-15T10:47:51;100507.86;;;6.13;92.09
54924;BME280;40825;52.270;20.984;2022-11-15T10:50:31;100500.77;;;6.16;92.17
54924;BME280;40825;52.270;20.984;2022-11-15T10:52:58;100504.10;;;6.20;92.20
54924;BME280;40825;52.270;20.984;2022-11-15T10:55:30;100504.34;;;6.26;92.31
54924;BME280;40825;52.270;20.984;2022-11-15T10:58:33;100504.08;;;6.32;92.24
54924;BME280;40825;52.270;20.984;2022-11-15T11:03:36;100492.95;;;6.41;92.00
54924;BME280;40825;52.270;20.984;2022-11-15T11:06:08;100489.97;;;6.41;91.60
54924;BME280;40825;52.270;20.984;2022-11-15T11:08:34;100489.75;;;6.36;91.27
54924;BME280;40825;52.270;20.984;2022-11-15T11:11:02;100490.96;;;6.31;91.32
54924;BME280;40825;52.270;20.984;2022-11-15T11:13:30;100495.84;;;6.31;91.75
54924;BME280;40825;52.270;20.984;2022-11-15T11:16:41;100493.17;;;6.35;91.91
54924;BME280;40825;52.270;20.984;2022-11-15T11:19:41;100491.48;;;6.40;91.77
54924;BME280;40825;52.270;20.984;2022-11-15T11:25:03;100484.02;;;6.38;91.72
54924;BME280;40825;52.270;20.984;2022-11-15T11:27:43;100483.04;;;6.42;91.78
54924;BME280;40825;52.270;20.984;2022-11-15T11:30:47;100478.80;;;6.44;91.60
54924;BME280;40825;52.270;20.984;2022-11-15T11:35:58;100466.39;;;6.40;90.99
54924;BME280;40825;52.270;20.984;2022-11-15T11:46:56;100456.41;;;6.36;91.25
54924;BME280;40825;52.270;20.984;2022-11-15T11:49:45;100454.23;;;6.38;91.24
54924;BME280;40825;52.270;20.984;2022-11-15T11:52:23;100446.34;;;6.40;91.23
54924;BME280;40825;52.270;20.984;2022-11-15T11:57:45;100437.50;;;6.47;91.28
54924;BME280;40825;52.270;20.984;2022-11-15T12:00:22;100435.02;;;6.47;91.03
54924;BME280;40825;52.270;20.984;2022-11-15T12:05:39;100427.48;;;6.50;91.25
54924;BME280;40825;52.270;20.984;2022-11-15T12:08:38;100423.19;;;6.55;91.31
54924;BME280;40825;52.270;20.984;2022-11-15T12:11:14;100422.73;;;6.59;91.13
54924;BME280;40825;52.270;20.984;2022-11-15T12:13:42;100423.92;;;6.62;91.08
54924;BME280;40825;52.270;20.984;2022-11-15T12:16:13;100423.99;;;6.65;91.11
54924;BME280;40825;52.270;20.984;2022-11-15T12:18:49;100420.39;;;6.67;90.98
54924;BME280;40825;52.270;20.984;2022-11-15T12:21:23;100421.23;;;6.69;91.11
54924;BME280;40825;52.270;20.984;2022-11-15T12:23:55;100419.13;;;6.73;91.09
54924;BME280;40825;52.270;20.984;2022-11-15T12:26:29;100415.62;;;6.75;90.92
54924;BME280;40825;52.270;20.984;2022-11-15T12:29:01;100411.77;;;6.75;90.91
54924;BME280;40825;52.270;20.984;2022-11-15T12:34:01;100402.89;;;6.77;90.71
54924;BME280;40825;52.270;20.984;2022-11-15T12:36:39;100398.41;;;6.76;90.73
54924;BME280;40825;52.270;20.984;2022-11-15T12:39:09;100397.42;;;6.77;90.85
54924;BME280;40825;52.270;20.984;2022-11-15T12:41:38;100395.03;;;6.79;90.87
54924;BME280;40825;52.270;20.984;2022-11-15T12:44:10;100389.95;;;6.80;90.70
54924;BME280;40825;52.270;20.984;2022-11-15T12:59:55;100398.64;;;6.82;90.63
54924;BME280;40825;52.270;20.984;2022-11-15T13:02:40;100393.00;;;6.82;90.63
54924;BME280;40825;52.270;20.984;2022-11-15T13:22:48;100383.95;;;6.72;90.28
54924;BME280;40825;52.270;20.984;2022-11-15T13:28:20;100376.59;;;6.66;90.41
54924;BME280;40825;52.270;20.984;2022-11-15T13:35:42;100366.64;;;6.62;90.34
54924;BME280;40825;52.270;20.984;2022-11-15T13:38:19;100362.86;;;6.62;90.45
54924;BME280;40825;52.270;20.984;2022-11-15T13:40:50;100359.00;;;6.64;90.41
54924;BME280;40825;52.270;20.984;2022-11-15T13:48:40;100353.92;;;6.65;90.30
54924;BME280;40825;52.270;20.984;2022-11-15T13:51:23;100354.08;;;6.64;90.32
54924;BME280;40825;52.270;20.984;2022-11-15T13:56:45;100354.96;;;6.60;90.38
54924;BME280;40825;52.270;20.984;2022-11-15T13:59:23;100353.80;;;6.59;90.34
54924;BME280;40825;52.270;20.984;2022-11-15T14:01:50;100356.45;;;6.58;90.31
54924;BME280;40825;52.270;20.984;2022-11-15T14:04:20;100355.30;;;6.55;90.35
54924;BME280;40825;52.270;20.984;2022-11-15T14:06:49;100348.53;;;6.54;90.37
54924;BME280;40825;52.270;20.984;2022-11-15T14:11:54;100346.55;;;6.51;90.25
54924;BME280;40825;52.270;20.984;2022-11-15T14:14:23;100348.73;;;6.49;90.15
54924;BME280;40825;52.270;20.984;2022-11-15T14:16:51;100336.56;;;6.47;90.26
54924;BME280;40825;52.270;20.984;2022-11-15T14:24:34;100336.89;;;6.42;90.22
54924;BME280;40825;52.270;20.984;2022-11-15T14:27:25;100340.47;;;6.40;90.27
54924;BME280;40825;52.270;20.984;2022-11-15T14:29:51;100342.49;;;6.39;90.38
54924;BME280;40825;52.270;20.984;2022-11-15T14:32:21;100341.16;;;6.40;90.30
54924;BME280;40825;52.270;20.984;2022-11-15T14:34:55;100338.39;;;6.40;90.32
54924;BME280;40825;52.270;20.984;2022-11-15T14:37:32;100335.95;;;6.39;90.30
54924;BME280;40825;52.270;20.984;2022-11-15T14:40:03;100329.88;;;6.38;90.34
54924;BME280;40825;52.270;20.984;2022-11-15T14:42:29;100328.54;;;6.37;90.25
54924;BME280;40825;52.270;20.984;2022-11-15T14:44:55;100328.93;;;6.35;90.27
54924;BME280;40825;52.270;20.984;2022-11-15T14:47:21;100332.29;;;6.34;90.29
54924;BME280;40825;52.270;20.984;2022-11-15T14:49:46;100332.61;;;6.32;90.28
54924;BME280;40825;52.270;20.984;2022-11-15T14:52:30;100335.29;;;6.30;90.22
54924;BME280;40825;52.270;20.984;2022-11-15T14:54:59;100335.20;;;6.28;90.26
54924;BME280;40825;52.270;20.984;2022-11-15T14:57:26;100332.71;;;6.25;90.18
54924;BME280;40825;52.270;20.984;2022-11-15T14:59:52;100329.48;;;6.24;90.29